Flight Track Log - Related Links

Times and Time Zones

All times are in EDT time to prevent confusion due to time zone crossing. See the AWE1940 flight status page for this flight to view local times or setup timezone preferences in your user account.

Time Position Orientation Groundspeed Altitude Reporting Facility
EDT Latitude Longitude Course Direction KTS MPH feet Rate Location/Type
Tue 10:30:59 PM 35.1950 -80.9356 72° East 162 186 1,600  Level Atlanta Center
Tue 10:32:00 PM 35.1425 -80.9222 168° South 209 241 3,300 1,969 Climbing Atlanta Center
Tue 10:33:00 PM 35.1000 -80.6333 90° East  Level FlightAware Approximate
Tue 10:33:07 PM 35.1217 -80.8392 107° East 288 331 5,800  Level Atlanta Center
Tue 10:34:00 PM 35.1927 -80.5716 29° Northeast  Level FlightAware Approximate
Tue 10:34:08 PM 35.1589 -80.7539 62° Northeast 280 322 8,600  Level Atlanta Center
Tue 10:35:00 PM 35.2840 -80.5067 30° Northeast  Level FlightAware Approximate
Tue 10:35:08 PM 35.1944 -80.6764 61° Northeast 302 348 10,800  Level Atlanta Center
Tue 10:36:00 PM 35.3449 -80.4230 72° East  Level FlightAware Approximate
Tue 10:36:08 PM 35.2394 -80.5728 62° Northeast 326 375 13,100  Level Atlanta Center
Tue 10:37:08 PM 35.2906 -80.4611 61° Northeast 334 384 15,900 2,650 Climbing Atlanta Center
Tue 10:38:08 PM 35.3414 -80.3494 61° Northeast 354 407 18,400 2,154 Climbing Atlanta Center
Tue 10:40:23 PM 35.4433 -80.0944 64° Northeast 387 445 22,900 1,919 Climbing Washington Center
Tue 10:41:25 PM 35.4842 -79.9489 71° East 392 451 24,700 1,650 Climbing Washington Center
Tue 10:42:23 PM 35.5183 -79.8078 73° East 411 473 26,200 1,160 Climbing Washington Center
Tue 10:43:24 PM 35.5525 -79.6667 73° East 424 488 27,000 454 Climbing Washington Center
Tue 10:44:22 PM 35.5928 -79.5231 71° East 441 507 27,100 756 Climbing Washington Center
Tue 10:45:23 PM 35.6350 -79.3794 70° East 446 513 28,500 1,537 Climbing Washington Center
Tue 10:46:23 PM 35.6936 -79.2417 62° Northeast 446 513 30,200 1,686 Climbing Washington Center
Tue 10:47:24 PM 35.7661 -79.1144 55° Northeast 446 513 31,900 1,412 Climbing Washington Center
Tue 10:48:22 PM 35.8447 -79.0000 50° Northeast 446 513 33,000 550 Climbing Washington Center
Tue 10:49:24 PM 35.9253 -78.8828 50° Northeast 446 513 33,000  Level Washington Center
Tue 10:50:22 PM 36.0214 -78.7919 37° Northeast 435 501 33,000  Level Washington Center
Tue 10:51:23 PM 36.1158 -78.7006 38° Northeast 435 501 33,000  Level Washington Center
Tue 10:52:24 PM 36.2142 -78.6092 37° Northeast 435 501 33,000  Level Washington Center
Tue 10:53:22 PM 36.3103 -78.5175 38° Northeast 435 501 33,000  Level Washington Center
Tue 10:54:22 PM 36.4019 -78.4306 37° Northeast 429 494 33,000  Level Washington Center
Tue 10:55:24 PM 36.4958 -78.3383 38° Northeast 429 494 33,000  Level Washington Center
Tue 10:56:22 PM 36.5897 -78.2486 37° Northeast 429 494 33,000  Level Washington Center
Tue 10:57:22 PM 36.6644 -78.1761 38° Northeast 429 494 33,000  Level Washington Center
Tue 10:58:22 PM 36.7647 -78.0758 39° Northeast 424 488 33,000  Level Washington Center
Tue 10:59:22 PM 36.8583 -77.9853 38° Northeast 418 481 33,000  Level Washington Center
Tue 11:00:23 PM 36.9519 -77.8919 39° Northeast 423 487 33,000  Level Washington Center
Tue 11:01:24 PM 37.0453 -77.8011 38° Northeast 423 487 33,000  Level Washington Center
Tue 11:02:24 PM 37.1367 -77.7100 38° Northeast 423 487 33,000  Level Washington Center
Tue 11:03:24 PM 37.2300 -77.6186 38° Northeast 423 487 33,000  Level Washington Center
Tue 11:04:22 PM 37.3233 -77.5297 37° Northeast 423 487 33,000  Level Washington Center
Tue 11:05:22 PM 37.4144 -77.4378 39° Northeast 428 493 33,000  Level Washington Center
Tue 11:06:23 PM 37.5075 -77.3458 38° Northeast 428 493 33,000  Level Washington Center
Tue 11:07:23 PM 37.5967 -77.2536 39° Northeast 428 493 33,000  Level Washington Center
Tue 11:08:24 PM 37.6875 -77.1636 38° Northeast 423 487 33,000  Level Washington Center
Tue 11:09:22 PM 37.7783 -77.0711 39° Northeast 423 487 33,000  Level Washington Center
Tue 11:10:23 PM 37.8692 -76.9808 38° Northeast 423 487 33,000  Level Washington Center
Tue 11:11:24 PM 37.9578 -76.8900 39° Northeast 423 487 33,000  Level Washington Center
Tue 11:12:22 PM 38.0483 -76.7994 38° Northeast 417 480 33,000  Level Washington Center
Tue 11:13:22 PM 38.1389 -76.7058 39° Northeast 417 480 33,000  Level Washington Center
Tue 11:14:24 PM 38.2294 -76.6119 39° Northeast 417 480 33,000  Level Washington Center
Tue 11:15:22 PM 38.3156 -76.5258 38° Northeast 417 480 33,000  Level Washington Center
Tue 11:16:22 PM 38.4058 -76.4317 39° Northeast 411 473 33,000  Level Washington Center
Tue 11:17:23 PM 38.4942 -76.3397 39° Northeast 406 467 33,000  Level Washington Center
Tue 11:18:25 PM 38.5822 -76.2478 39° Northeast 406 467 33,000  Level Washington Center
Tue 11:19:23 PM 38.6786 -76.1528 38° Northeast 406 467 33,000  Level Washington Center
Tue 11:20:24 PM 38.7644 -76.0603 40° Northeast 411 473 33,000  Level Washington Center
Tue 11:21:22 PM 38.8544 -75.9675 39° Northeast 411 473 33,000  Level Washington Center
Tue 11:22:21 PM 38.9442 -75.8744 39° Northeast 406 467 33,000  Level Washington Center
Tue 11:23:22 PM 39.0319 -75.7814 39° Northeast 406 467 33,000  Level Washington Center
Tue 11:24:23 PM 39.1197 -75.6906 39° Northeast 401 461 33,000  Level Washington Center
Tue 11:25:22 PM 39.2092 -75.5969 39° Northeast 401 461 33,000  Level Washington Center
Tue 11:26:22 PM 39.2967 -75.5031 40° Northeast 401 461 33,000 -347 Level Washington Center
Tue 11:27:23 PM 39.3842 -75.4117 39° Northeast 401 461 32,300 -793 Descending Washington Center
Tue 11:28:23 PM 39.4714 -75.3172 40° Northeast 401 461 31,400 -645 Descending Washington Center
Tue 11:29:24 PM 39.5608 -75.2200 40° Northeast 401 461 31,000 -198 Descending Washington Center
Tue 11:30:24 PM 39.6481 -75.1225 41° Northeast 401 461 31,000  Level Washington Center
Tue 11:32:27 PM 39.8450 -74.9075 40° Northeast 411 473 31,000  Level New York Center
Tue 11:33:28 PM 39.9314 -74.8261 36° Northeast 426 490 31,000  Level New York Center
Tue 11:34:28 PM 40.0203 -74.7256 41° Northeast 426 490 31,000  Level New York Center
Tue 11:35:27 PM 40.1131 -74.6275 39° Northeast 426 490 31,000  Level New York Center
Tue 11:36:31 PM 40.2231 -74.5739 20° North 417 480 31,000  Level New York Center
Tue 11:37:28 PM 40.3347 -74.5367 14° North 412 474 31,000  Level New York Center
Tue 11:38:28 PM 40.4486 -74.5019 13° North 412 474 31,000  Level New York Center
Tue 11:39:29 PM 40.5642 -74.4672 13° North 412 474 31,000  Level New York Center
Tue 11:40:28 PM 40.6756 -74.4322 13° North 412 474 31,000 -233 Level New York Center
Tue 11:42:29 PM 40.9147 -74.3683 11° North 415 478 30,300 -560 Descending Boston Center
Tue 11:43:30 PM 41.0297 -74.3331 13° North 415 478 29,300 -1,050 Descending Boston Center
Tue 11:44:29 PM 41.1431 -74.3006 12° North 415 478 28,200 -1,210 Descending Boston Center
Tue 11:45:29 PM 41.2539 -74.2653 13° North 410 472 26,900 -1,050 Descending Boston Center
Tue 11:46:29 PM 41.3672 -74.2269 14° North 410 472 26,100 -500 Descending Boston Center
Tue 11:47:29 PM 41.4803 -74.1914 13° North 410 472 25,900 -900 Descending Boston Center
Tue 11:48:29 PM 41.5933 -74.1611 11° North 410 472 24,300 -1,800 Descending Boston Center
Tue 11:49:29 PM 41.7019 -74.1306 12° North 410 472 22,300 -2,050 Descending Boston Center
Tue 11:50:29 PM 41.8172 -74.0947 13° North 400 460 20,200 -2,158 Descending Boston Center
Tue 11:51:23 PM 41.9136 -74.0667 12° North 391 450 18,200 -2,350 Descending Boston Center
Tue 11:52:29 PM 42.0244 -74.0303 14° North 371 427 15,500 -2,476 Descending Boston Center
Tue 11:53:29 PM 42.1125 -74.0017 14° North 371 427 13,000 -2,100 Descending Boston Center
Tue 11:54:29 PM 42.2194 -73.9594 16° North 361 415 11,300 -1,200 Descending Boston Center
Tue 11:55:29 PM 42.2906 -73.9247 20° North 328 377 10,600 -923 Descending Boston Center
Tue 11:56:39 PM 42.3850 -73.8819 18° North 280 322 9,300 -1,246 Descending Boston Center
Tue 11:57:39 PM 42.4561 -73.8500 18° North 270 311 7,900 -1,339 Descending Boston Center
Tue 11:58:40 PM 42.5339 -73.8094 21° North 275 316 6,600 -1,230 Descending Boston Center
Tue 11:59:41 PM 42.5844 -73.7542 39° Northeast 262 302 5,400 -793 Descending Boston Center
Wed 12:00:41 AM 42.5414 -73.7025 139° Southeast 214 246 5,000 -198 Descending Boston Center
Wed 12:01:42 AM 42.4808 -73.7014 179° South 206 237 5,000  Level Boston Center
Wed 12:02:42 AM 42.4511 -73.7569 234° Southwest 204 235 5,000  Level Boston Center

Login

Don't have an account? Register now (free) for customized features, flight alerts, and more!